Chevery, Canada
Current Conditions -  °F | °C
As of 6:00 AM on Thursday 23 Oct 2014 (Local Time) from CWDH Reporting Station
Clear Clear  
Wind Chill: 31°   Ceiling: Unl
Heat Index: 31°   Visibility: 9mi
Dew Point: 26°   Wind: 3mph
Humidity: 80%   Direction: 130°SE
Pressure: 30.37"   Gusts: NA
Location:  50.47°N, 59.6°W
Report Text: CWDH 230900Z AUTO 13003KT 9SM NSC M00/M04 A3037 RMK SLP287 T10051035 WSI/SWOB
Loading
Personal Weather Stations






























Interactive Weather Map
Tropical Storm Tracking
New forecast layout! Learn more

10-Day Weather Forecast

Advertisements
Track Severe Weather on mobile